createdAt,value
2023-01-30T00:02:34.253Z,2.29
2023-01-30T00:07:33.137Z,2.37
2023-01-30T00:12:31.893Z,2.38
2023-01-30T00:17:32.072Z,2.29
2023-01-30T00:22:30.931Z,2.34
2023-01-30T00:27:29.702Z,2.43
2023-01-30T00:32:28.763Z,2.14
2023-01-30T00:37:30.742Z,2.39
2023-01-30T00:42:47.317Z,2.31
2023-01-30T00:47:46.499Z,2.34
2023-01-30T00:52:46.710Z,2.36
2023-01-30T00:57:46.539Z,2.36
2023-01-30T01:02:45.372Z,2.48
2023-01-30T01:07:44.240Z,2.52
2023-01-30T01:12:44.863Z,2.64
2023-01-30T01:17:43.962Z,2.81
2023-01-30T01:22:43.216Z,2.92
2023-01-30T01:27:42.039Z,3.01
2023-01-30T01:32:42.360Z,3.04
2023-01-30T01:37:41.654Z,2.94
2023-01-30T01:42:40.985Z,2.96
2023-01-30T01:47:43.472Z,3.07
2023-01-30T01:52:43.490Z,3.14
2023-01-30T01:57:47.445Z,3.17
2023-01-30T02:02:54.853Z,3.24
2023-01-30T02:08:00.648Z,3.30
2023-01-30T02:13:00.524Z,3.29
2023-01-30T02:18:00.718Z,3.26
2023-01-30T02:23:26.401Z,3.31
2023-01-30T02:28:42.159Z,3.32
2023-01-30T02:33:55.133Z,3.29
2023-01-30T02:39:04.014Z,3.09
2023-01-30T02:44:06.789Z,3.11
2023-01-30T02:49:12.321Z,2.96
2023-01-30T02:54:13.147Z,2.97
2023-01-30T02:59:14.767Z,2.88
2023-01-30T03:04:36.056Z,2.95
2023-01-30T03:09:48.325Z,2.92
2023-01-30T03:14:52.035Z,2.74
2023-01-30T03:19:54.312Z,2.72
2023-01-30T03:24:55.569Z,2.74
2023-01-30T03:29:54.526Z,2.66
2023-01-30T03:34:54.892Z,2.71
2023-01-30T03:39:54.423Z,2.56
2023-01-30T03:44:53.630Z,2.47
2023-01-30T03:49:52.530Z,2.61
2023-01-30T03:54:52.951Z,2.76
2023-01-30T03:59:52.047Z,2.82
2023-01-30T04:04:51.116Z,2.83
2023-01-30T04:09:50.163Z,2.79
2023-01-30T04:14:52.927Z,2.83
2023-01-30T04:20:11.659Z,2.86
2023-01-30T04:25:16.512Z,2.89
2023-01-30T04:30:18.043Z,2.94
2023-01-30T04:35:19.604Z,2.96
2023-01-30T04:40:19.195Z,2.97
2023-01-30T04:45:20.221Z,3.00
2023-01-30T04:50:20.951Z,3.02
2023-01-30T04:55:20.146Z,3.03
2023-01-30T05:00:21.265Z,2.91
2023-01-30T05:05:26.723Z,2.90
2023-01-30T05:10:25.607Z,2.76
2023-01-30T05:15:25.904Z,2.75
2023-01-30T05:20:24.763Z,2.67
2023-01-30T05:25:23.748Z,2.73
2023-01-30T05:30:22.887Z,2.82
2023-01-30T05:35:23.171Z,2.70
2023-01-30T05:40:22.199Z,2.69
2023-01-30T05:45:21.136Z,2.80
2023-01-30T05:50:20.034Z,2.79
2023-01-30T05:55:20.588Z,2.56
2023-01-30T06:00:21.089Z,2.70
2023-01-30T06:05:22.279Z,2.70
2023-01-30T06:10:25.111Z,2.67
2023-01-30T06:15:24.131Z,2.56
2023-01-30T06:20:23.406Z,2.63
2023-01-30T06:25:36.680Z,2.70
2023-01-30T06:30:35.648Z,2.74
2023-01-30T06:35:35.150Z,2.70
2023-01-30T06:40:35.342Z,2.71
2023-01-30T06:45:34.713Z,2.69
2023-01-30T06:50:33.964Z,2.76
2023-01-30T06:55:34.761Z,2.76
2023-01-30T07:00:35.569Z,2.70
2023-01-30T07:05:34.335Z,2.76
2023-01-30T07:10:33.282Z,2.76
2023-01-30T07:15:32.778Z,2.90
2023-01-30T07:20:33.258Z,3.03
2023-01-30T07:25:32.259Z,3.11
2023-01-30T07:30:36.133Z,3.05
2023-01-30T07:35:38.147Z,2.66
2023-01-30T07:40:37.522Z,2.75
2023-01-30T07:45:52.556Z,2.71
2023-01-30T07:50:57.684Z,2.74
2023-01-30T07:55:56.973Z,2.88
2023-01-30T08:00:56.965Z,2.86
2023-01-30T08:05:57.157Z,2.87
2023-01-30T08:10:56.071Z,2.93
2023-01-30T08:15:55.070Z,3.10
2023-01-30T08:20:53.968Z,3.33
2023-01-30T08:25:57.450Z,3.35
2023-01-30T08:30:56.971Z,3.37
2023-01-30T08:35:57.470Z,3.18
2023-01-30T08:40:59.539Z,3.50
2023-01-30T08:45:58.641Z,3.44
2023-01-30T08:50:58.558Z,3.47
2023-01-30T08:55:59.000Z,3.46
2023-01-30T09:00:57.931Z,3.77
2023-01-30T09:05:57.159Z,3.78
2023-01-30T09:11:00.911Z,3.64
2023-01-30T09:16:00.381Z,3.32
2023-01-30T09:21:05.012Z,3.37
2023-01-30T09:26:06.789Z,3.55
2023-01-30T09:31:06.099Z,3.84
2023-01-30T09:36:05.540Z,3.65
2023-01-30T09:41:27.676Z,3.70
2023-01-30T09:46:36.270Z,3.56
2023-01-30T09:51:44.926Z,3.62
2023-01-30T09:56:45.227Z,3.80
2023-01-30T10:01:55.598Z,3.57
2023-01-30T10:07:03.376Z,3.67
2023-01-30T10:12:22.757Z,3.71
2023-01-30T10:17:38.281Z,3.67
2023-01-30T10:22:52.492Z,3.57
2023-01-30T10:27:57.107Z,3.37
2023-01-30T10:33:02.378Z,3.31
2023-01-30T10:38:12.711Z,2.80
2023-01-30T10:43:23.984Z,2.84
2023-01-30T10:48:56.427Z,2.86
2023-01-30T10:54:05.020Z,2.86
2023-01-30T10:59:26.025Z,2.29
2023-01-30T11:04:31.691Z,2.50
2023-01-30T11:09:42.011Z,2.58
2023-01-30T11:14:58.777Z,2.36
2023-01-30T11:19:59.004Z,2.14
2023-01-30T11:25:07.879Z,2.04
2023-01-30T11:30:16.177Z,2.39
2023-01-30T11:35:27.211Z,2.45
2023-01-30T11:40:29.778Z,2.61
2023-01-30T11:45:31.872Z,2.72
2023-01-30T11:50:36.434Z,2.54
2023-01-30T11:55:47.099Z,2.67
2023-01-30T12:00:53.717Z,2.57
2023-01-30T12:06:00.269Z,2.38
2023-01-30T12:11:07.864Z,1.98
2023-01-30T12:16:20.610Z,2.31
2023-01-30T12:21:41.926Z,2.09
2023-01-30T12:26:47.139Z,2.28
2023-01-30T12:31:50.225Z,2.20
2023-01-30T12:37:00.801Z,2.02
2023-01-30T12:42:25.904Z,2.24
2023-01-30T12:47:46.457Z,2.13
2023-01-30T12:53:36.482Z,2.04
2023-01-30T12:58:46.005Z,2.26
2023-01-30T13:03:53.485Z,2.43
2023-01-30T13:09:07.660Z,2.60
2023-01-30T13:14:13.067Z,2.46
2023-01-30T13:19:23.098Z,2.66
2023-01-30T13:24:31.409Z,2.74
2023-01-30T13:29:33.980Z,2.82
2023-01-30T13:34:37.708Z,2.71
2023-01-30T13:39:44.158Z,2.19
2023-01-30T13:44:53.544Z,2.41
2023-01-30T13:50:08.887Z,2.73
2023-01-30T13:55:32.178Z,2.92
2023-01-30T14:00:36.415Z,3.11
2023-01-30T14:06:16.846Z,3.17
2023-01-30T14:11:34.499Z,2.95
2023-01-30T14:16:45.214Z,2.67
2023-01-30T14:21:56.892Z,2.71
2023-01-30T14:27:24.856Z,2.86
2023-01-30T14:32:56.624Z,2.71
2023-01-30T14:38:17.586Z,2.70
2023-01-30T14:43:55.677Z,2.57
2023-01-30T14:48:58.395Z,2.70
2023-01-30T14:54:00.787Z,2.61
2023-01-30T14:59:12.613Z,2.74
2023-01-30T15:04:17.733Z,2.51
2023-01-30T15:09:18.721Z,2.60
2023-01-30T15:14:29.520Z,2.76
2023-01-30T15:19:43.374Z,2.89
2023-01-30T15:25:13.819Z,3.00
2023-01-30T15:30:24.866Z,2.90
2023-01-30T15:35:34.712Z,2.94
2023-01-30T15:40:34.278Z,2.94
2023-01-30T15:45:44.689Z,2.85
2023-01-30T15:50:54.951Z,2.88
2023-01-30T15:55:56.986Z,2.74
2023-01-30T16:01:00.765Z,2.65
2023-01-30T16:06:02.739Z,2.70
2023-01-30T16:11:02.040Z,2.60
2023-01-30T16:16:08.483Z,2.61
2023-01-30T16:21:11.288Z,2.46
2023-01-30T16:26:17.599Z,2.47
2023-01-30T16:31:19.872Z,2.55
2023-01-30T16:36:39.187Z,2.70
2023-01-30T16:41:40.240Z,2.74
2023-01-30T16:46:57.092Z,2.64
2023-01-30T16:52:04.786Z,2.61
2023-01-30T16:57:07.374Z,2.43
2023-01-30T17:02:08.651Z,2.29
2023-01-30T17:07:07.716Z,2.23
2023-01-30T17:12:53.275Z,2.23
2023-01-30T17:17:53.608Z,2.01
2023-01-30T17:22:53.987Z,2.00
2023-01-30T17:27:53.107Z,1.88
2023-01-30T17:32:53.406Z,1.65
2023-01-30T17:38:04.176Z,1.46
2023-01-30T17:43:05.629Z,1.49
2023-01-30T17:48:06.585Z,1.40
2023-01-30T17:53:05.639Z,1.07
2023-01-30T17:58:05.123Z,1.09
2023-01-30T18:03:05.558Z,0.91
2023-01-30T18:08:04.546Z,0.83
2023-01-30T18:13:03.407Z,0.78
2023-01-30T18:18:02.590Z,0.67
2023-01-30T18:23:03.031Z,0.75
2023-01-30T18:28:03.149Z,0.93
2023-01-30T18:33:02.265Z,0.90
2023-01-30T18:38:03.147Z,0.95
2023-01-30T18:43:02.022Z,1.03
2023-01-30T18:48:03.648Z,0.96
2023-01-30T18:53:04.025Z,0.95
2023-01-30T18:58:02.879Z,0.81
2023-01-30T19:03:03.009Z,0.78
2023-01-30T19:08:03.267Z,0.80
2023-01-30T19:13:19.183Z,0.99
2023-01-30T19:18:18.263Z,0.85
2023-01-30T19:23:18.412Z,0.77
2023-01-30T19:28:17.343Z,0.75
2023-01-30T19:33:16.246Z,0.67
2023-01-30T19:38:15.099Z,0.55
2023-01-30T19:43:15.431Z,0.54
2023-01-30T19:48:14.270Z,0.50
2023-01-30T19:53:13.204Z,0.72
2023-01-30T19:58:12.318Z,0.73
2023-01-30T20:03:16.392Z,0.75
2023-01-30T20:08:30.459Z,0.55
2023-01-30T20:13:30.927Z,0.61
2023-01-30T20:18:31.713Z,0.84
2023-01-30T20:23:30.626Z,0.73
2023-01-30T20:28:29.528Z,0.81
2023-01-30T20:33:29.212Z,0.92
2023-01-30T20:38:31.147Z,0.81
2023-01-30T20:43:32.507Z,0.70
2023-01-30T20:48:31.479Z,0.63
2023-01-30T20:53:31.796Z,0.62
2023-01-30T20:58:30.943Z,0.48
2023-01-30T21:03:29.639Z,0.70
2023-01-30T21:08:28.886Z,0.79
2023-01-30T21:13:28.986Z,0.67
2023-01-30T21:18:29.951Z,0.58
2023-01-30T21:23:30.694Z,0.73
2023-01-30T21:28:32.125Z,0.91
2023-01-30T21:33:30.907Z,0.89
2023-01-30T21:38:47.353Z,1.00
2023-01-30T21:43:50.021Z,0.90
2023-01-30T21:48:48.764Z,0.86
2023-01-30T21:53:47.657Z,1.10
2023-01-30T21:58:46.498Z,0.90
2023-01-30T22:03:47.813Z,0.85
2023-01-30T22:08:46.934Z,0.97
2023-01-30T22:13:45.828Z,0.76
2023-01-30T22:18:46.042Z,1.14
2023-01-30T22:23:48.098Z,1.04
2023-01-30T22:28:47.537Z,1.20
2023-01-30T22:33:47.235Z,1.34
2023-01-30T22:38:49.079Z,1.24
2023-01-30T22:43:50.205Z,1.09
2023-01-30T22:48:49.469Z,1.29
2023-01-30T22:53:51.738Z,1.30
2023-01-30T22:58:50.910Z,1.01
2023-01-30T23:03:54.487Z,1.02
2023-01-30T23:08:56.666Z,0.95
2023-01-30T23:13:57.226Z,1.10
2023-01-30T23:18:58.942Z,1.10
2023-01-30T23:24:01.199Z,1.25
2023-01-30T23:29:02.117Z,1.32
2023-01-30T23:34:02.479Z,1.08
2023-01-30T23:39:02.970Z,1.18
2023-01-30T23:44:02.622Z,1.19
2023-01-30T23:49:03.326Z,1.20
2023-01-30T23:54:03.933Z,1.20
2023-01-30T23:59:03.175Z,1.34
